Time;durP1;ratioP1;P1;durP2;ratioP2;P2;SDS_P1;SDS_P2;PMS_P1;PMS_P2;Temp;Humidity;BMP_temperature;BMP_pressure;BME280_temperature;BME280_humidity;BME280_pressure;Samples;Min_cycle;Max_cycle;Signal;HPM_P1;HPM_P2
2023/02/22 00:00:47;;;;;;;26.13;11.68;;;-13.00;92.50;;;;;;5052772;28;19951;-79
2023/02/22 00:03:16;;;;;;;29.73;16.10;;;-13.00;92.50;;;;;;5052731;28;20025;-79
2023/02/22 00:05:45;;;;;;;27.25;13.35;;;-13.10;92.50;;;;;;5056015;28;20017;-79
2023/02/22 00:08:13;;;;;;;31.05;15.85;;;-13.10;92.60;;;;;;5052827;28;20021;-79
2023/02/22 00:10:39;;;;;;;24.13;12.90;;;-13.10;92.60;;;;;;5053208;28;20174;-78
2023/02/22 00:13:08;;;;;;;21.65;13.00;;;-13.10;92.80;;;;;;5041926;28;20059;-79
2023/02/22 00:15:34;;;;;;;25.70;14.27;;;-13.10;92.90;;;;;;5054323;28;20021;-80
2023/02/22 00:18:01;;;;;;;30.35;14.38;;;-13.10;92.70;;;;;;5055683;28;20024;-79
2023/02/22 00:20:27;;;;;;;;;;;-13.10;92.60;;;;;;5054414;28;20021;-79
2023/02/22 00:22:54;;;;;;;17.00;10.83;;;-13.10;92.70;;;;;;5051406;28;19912;-78
2023/02/22 00:25:23;;;;;;;32.63;15.88;;;-13.10;92.50;;;;;;5052945;28;20390;-80
2023/02/22 00:27:52;;;;;;;34.33;14.93;;;-13.20;92.50;;;;;;5053225;28;20073;-78
2023/02/22 00:30:22;;;;;;;28.08;13.45;;;-13.30;92.60;;;;;;5053036;28;20090;-78
2023/02/22 00:32:49;;;;;;;29.75;17.63;;;-13.30;92.80;;;;;;5053086;28;20029;-79
2023/02/22 00:35:16;;;;;;;27.88;17.13;;;-13.30;92.80;;;;;;5053854;28;20025;-79
2023/02/22 00:37:42;;;;;;;28.42;13.55;;;-13.30;92.80;;;;;;5053043;28;20428;-78
2023/02/22 00:40:11;;;;;;;29.75;13.02;;;-13.30;92.90;;;;;;5056139;28;20029;-78
2023/02/22 00:42:37;;;;;;;34.05;18.80;;;-13.30;93.10;;;;;;5040076;28;20020;-79
2023/02/22 00:45:05;;;;;;;34.95;14.30;;;-13.30;93.20;;;;;;5064122;28;20128;-78
2023/02/22 00:47:31;;;;;;;25.20;13.15;;;-13.30;93.00;;;;;;5057309;28;20017;-78
2023/02/22 00:49:57;;;;;;;24.53;15.37;;;-13.30;92.90;;;;;;5051923;28;20029;-79
2023/02/22 00:52:23;;;;;;;13.48;8.57;;;-13.30;93.10;;;;;;5049513;28;20805;-78
2023/02/22 00:54:49;;;;;;;27.77;12.82;;;-13.30;93.10;;;;;;5051699;28;20032;-79
2023/02/22 00:57:15;;;;;;;25.52;18.05;;;-13.30;93.10;;;;;;5034278;28;20029;-78
2023/02/22 00:59:41;;;;;;;22.05;12.05;;;-13.20;93.20;;;;;;5052549;28;20024;-77
2023/02/22 01:02:08;;;;;;;27.42;16.63;;;-13.30;92.90;;;;;;5053226;28;20075;-78
2023/02/22 01:04:34;;;;;;;30.15;12.98;;;-13.30;92.90;;;;;;5056427;28;20025;-76
2023/02/22 01:07:00;;;;;;;28.05;15.20;;;-13.30;92.90;;;;;;5051962;28;20020;-79
2023/02/22 01:09:25;;;;;;;22.15;12.57;;;-13.40;92.90;;;;;;5052711;28;20040;-78
2023/02/22 01:11:55;;;;;;;25.60;13.52;;;-13.40;92.90;;;;;;5057387;28;20025;-79
2023/02/22 01:14:27;;;;;;;27.88;13.43;;;-13.40;93.00;;;;;;5057048;28;20029;-77
2023/02/22 01:16:55;;;;;;;29.20;13.13;;;-13.40;93.20;;;;;;5051161;28;20043;-78
2023/02/22 01:19:21;;;;;;;35.95;19.50;;;-13.40;93.10;;;;;;5053432;28;20370;-79
2023/02/22 01:21:48;;;;;;;46.55;17.17;;;-13.50;93.10;;;;;;5053762;28;20017;-78
2023/02/22 01:24:15;;;;;;;;;;;-13.50;93.10;;;;;;5039959;28;20541;-76
2023/02/22 01:26:42;;;;;;;33.33;13.48;;;-13.50;93.40;;;;;;5051170;28;20365;-78
2023/02/22 01:29:14;;;;;;;28.65;14.98;;;-13.50;93.20;;;;;;5051106;28;20128;-79
2023/02/22 01:31:42;;;;;;;48.90;13.30;;;-13.50;93.30;;;;;;5051962;28;20075;-79
2023/02/22 01:34:11;;;;;;;26.83;13.73;;;-13.50;93.10;;;;;;5051373;28;20021;-79
2023/02/22 01:36:38;;;;;;;34.20;15.98;;;-13.50;93.10;;;;;;5035021;28;20079;-79
2023/02/22 01:39:05;;;;;;;22.85;14.65;;;-13.60;93.20;;;;;;5050396;28;20032;-79
2023/02/22 01:41:31;;;;;;;25.42;12.32;;;-13.60;93.20;;;;;;5061725;28;20496;-79
2023/02/22 01:43:57;;;;;;;21.83;13.15;;;-13.60;93.30;;;;;;5061037;28;20054;-79
2023/02/22 01:46:26;;;;;;;28.42;14.48;;;-13.60;93.30;;;;;;5062249;28;20049;-79
2023/02/22 01:49:04;;;;;;;28.73;15.18;;;-13.60;93.30;;;;;;5063380;28;20047;-79
2023/02/22 01:51:36;;;;;;;34.40;16.65;;;-13.60;93.30;;;;;;5047308;28;20028;-81
2023/02/22 01:54:18;;;;;;;34.88;16.88;;;-13.60;93.30;;;;;;5058056;28;20420;-78
2023/02/22 01:56:56;;;;;;;25.42;15.15;;;-13.60;93.40;;;;;;5062226;28;20021;-76
2023/02/22 01:59:23;;;;;;;29.70;15.38;;;-13.60;93.40;;;;;;5057270;28;20025;-78
2023/02/22 02:01:49;;;;;;;27.35;17.00;;;-13.60;93.40;;;;;;5054731;28;20025;-79
2023/02/22 02:04:24;;;;;;;28.02;13.82;;;-13.60;93.40;;;;;;5056449;28;20033;-79
2023/02/22 02:06:53;;;;;;;26.63;14.43;;;-13.70;93.40;;;;;;5043447;28;20538;-78
2023/02/22 02:09:29;;;;;;;35.60;20.30;;;-13.70;93.40;;;;;;5067977;28;20037;-79
2023/02/22 02:11:59;;;;;;;29.00;14.67;;;-13.70;93.40;;;;;;5072777;28;20028;-77
2023/02/22 02:14:25;;;;;;;27.13;14.25;;;-13.70;93.30;;;;;;5054895;28;20285;-78
2023/02/22 02:16:52;;;;;;;25.10;13.83;;;-13.70;93.20;;;;;;5043420;28;20025;-78
2023/02/22 02:19:38;;;;;;;;;;;-13.80;93.30;;;;;;5055756;28;20035;-79
2023/02/22 02:22:30;;;;;;;28.38;16.67;;;-13.80;93.30;;;;;;5054157;28;19913;-78
2023/02/22 02:25:27;;;;;;;25.50;11.35;;;-13.80;93.30;;;;;;5043747;28;20051;-80
2023/02/22 02:28:08;;;;;;;25.67;13.85;;;-13.90;93.40;;;;;;5053700;28;20033;-78
2023/02/22 02:31:06;;;;;;;32.22;15.77;;;-13.90;93.40;;;;;;5053519;28;20509;-79
2023/02/22 02:34:02;;;;;;;30.05;13.60;;;-13.90;93.50;;;;;;5012047;28;20080;-78
2023/02/22 02:36:57;;;;;;;32.90;14.77;;;-13.90;93.60;;;;;;5053115;28;20033;-78
2023/02/22 02:39:33;;;;;;;27.35;12.95;;;-13.90;93.60;;;;;;5053640;28;20066;-79
2023/02/22 02:42:05;;;;;;;29.52;16.25;;;-13.90;93.70;;;;;;5053750;28;20067;-78
2023/02/22 02:44:44;;;;;;;28.52;17.92;;;-13.90;93.70;;;;;;5053759;28;20060;-79
2023/02/22 02:47:20;;;;;;;38.25;17.80;;;-13.80;93.70;;;;;;5054914;28;20013;-79
2023/02/22 02:49:54;;;;;;;36.33;16.58;;;-13.80;93.40;;;;;;5046556;28;20021;-78
2023/02/22 02:52:23;;;;;;;32.03;15.13;;;-13.90;93.30;;;;;;5053638;28;20021;-78
2023/02/22 02:54:51;;;;;;;29.17;11.10;;;-13.90;93.40;;;;;;5053566;28;20021;-78
2023/02/22 02:57:16;;;;;;;23.50;13.02;;;-13.90;93.40;;;;;;5041506;28;20022;-78
2023/02/22 02:59:42;;;;;;;29.02;14.52;;;-13.90;93.60;;;;;;5049091;28;20032;-76
2023/02/22 03:02:36;;;;;;;28.20;13.23;;;-13.90;93.70;;;;;;5053380;28;20029;-78
2023/02/22 03:05:26;;;;;;;30.13;17.10;;;-13.90;93.70;;;;;;5053615;28;20074;-79
2023/02/22 03:08:07;;;;;;;24.50;16.33;;;-13.90;93.50;;;;;;5054454;28;20021;-76
2023/02/22 03:11:13;;;;;;;24.48;12.25;;;-13.90;93.50;;;;;;5058067;28;20067;-79
2023/02/22 03:14:10;;;;;;;20.02;10.18;;;-14.00;93.40;;;;;;4989025;28;20052;-78
2023/02/22 03:17:08;;;;;;;28.33;16.15;;;-14.00;93.50;;;;;;5047904;28;20033;-79
2023/02/22 03:19:50;;;;;;;32.97;16.27;;;-14.00;93.70;;;;;;5045775;28;20041;-78
2023/02/22 03:22:24;;;;;;;25.98;13.30;;;-14.00;93.70;;;;;;5051166;28;20036;-78
2023/02/22 03:24:54;;;;;;;25.83;15.40;;;-14.00;93.70;;;;;;5051503;28;20025;-79
2023/02/22 03:27:46;;;;;;;29.98;13.38;;;-14.00;93.70;;;;;;5048992;28;20027;-79
2023/02/22 03:30:26;;;;;;;20.42;13.10;;;-14.00;93.70;;;;;;5038938;28;20170;-79
2023/02/22 03:32:59;;;;;;;30.83;16.35;;;-14.00;93.70;;;;;;5030276;28;20025;-79
2023/02/22 03:35:31;;;;;;;23.65;13.27;;;-14.00;93.60;;;;;;5048057;28;20099;-79
2023/02/22 03:38:01;;;;;;;27.92;16.20;;;-14.10;93.60;;;;;;5053746;28;20485;-79
2023/02/22 03:40:36;;;;;;;38.08;19.70;;;-14.10;93.70;;;;;;5047897;28;20367;-79
2023/02/22 03:43:14;;;;;;;35.77;18.20;;;-14.10;93.50;;;;;;5047735;28;20044;-80
2023/02/22 03:45:44;;;;;;;33.97;17.85;;;-14.10;93.30;;;;;;5052520;28;20500;-81
2023/02/22 03:48:19;;;;;;;33.22;15.57;;;-14.20;93.30;;;;;;5053809;28;20024;-79
2023/02/22 03:50:46;;;;;;;31.80;16.35;;;-14.20;93.40;;;;;;5054280;28;20037;-78
2023/02/22 03:53:12;;;;;;;34.75;18.50;;;-14.20;93.50;;;;;;5057180;28;20024;-80
2023/02/22 03:55:38;;;;;;;22.30;12.17;;;-14.20;93.60;;;;;;5060140;28;20025;-80
2023/02/22 03:58:11;;;;;;;36.93;17.90;;;-14.30;93.60;;;;;;5068520;28;20340;-79
2023/02/22 04:00:37;;;;;;;29.92;18.50;;;-14.30;93.60;;;;;;5050850;28;20025;-78
2023/02/22 04:03:03;;;;;;;31.13;18.77;;;-14.30;93.80;;;;;;5063655;28;20500;-77
2023/02/22 04:05:29;;;;;;;28.88;15.57;;;-14.30;93.70;;;;;;5058164;28;20032;-80
2023/02/22 04:07:56;;;;;;;30.40;11.37;;;-14.30;93.60;;;;;;5056585;28;20043;-79
2023/02/22 04:10:23;;;;;;;30.80;14.35;;;-14.30;93.60;;;;;;5056345;28;20036;-78
2023/02/22 04:12:49;;;;;;;26.92;14.20;;;-14.30;93.70;;;;;;5054655;28;20055;-79
2023/02/22 04:15:19;;;;;;;21.15;12.70;;;-14.30;93.80;;;;;;5054547;28;20454;-78
2023/02/22 04:17:45;;;;;;;34.33;14.57;;;-14.30;93.90;;;;;;5055182;28;20021;-77
2023/02/22 04:20:12;;;;;;;29.27;13.33;;;-14.20;94.00;;;;;;5038552;28;20024;-77
2023/02/22 04:22:39;;;;;;;22.60;13.50;;;-14.20;93.90;;;;;;5056630;28;20025;-78
2023/02/22 04:25:05;;;;;;;28.73;12.65;;;-14.20;93.90;;;;;;5058538;28;20025;-78
2023/02/22 04:27:31;;;;;;;36.78;21.10;;;-14.20;94.00;;;;;;5058988;28;20108;-78
2023/02/22 04:29:57;;;;;;;22.92;12.23;;;-14.20;93.90;;;;;;5051109;28;20065;-78
2023/02/22 04:32:23;;;;;;;29.77;15.57;;;-14.20;93.70;;;;;;5055226;28;20025;-78
2023/02/22 04:34:48;;;;;;;29.23;16.83;;;-14.20;93.80;;;;;;5055077;28;20032;-77
2023/02/22 04:37:14;;;;;;;26.77;11.73;;;-14.20;93.70;;;;;;5054926;28;20036;-78
2023/02/22 04:39:40;;;;;;;28.17;14.37;;;-14.20;93.80;;;;;;5056854;28;20036;-78
2023/02/22 04:42:06;;;;;;;30.90;15.40;;;-14.20;93.80;;;;;;5056180;28;20021;-79
2023/02/22 04:44:32;;;;;;;19.20;12.23;;;-14.20;93.90;;;;;;5057853;28;20213;-77
2023/02/22 04:46:58;;;;;;;32.20;14.25;;;-14.20;93.80;;;;;;5066865;28;20406;-79
2023/02/22 04:49:24;;;;;;;39.83;18.35;;;-14.20;93.80;;;;;;5058892;28;20045;-78
2023/02/22 04:51:50;;;;;;;29.85;12.00;;;-14.20;93.80;;;;;;5056521;28;20032;-77
2023/02/22 04:54:17;;;;;;;22.33;12.93;;;-14.20;93.90;;;;;;5056153;28;20394;-78
2023/02/22 04:56:43;;;;;;;;;;;-14.20;93.90;;;;;;5059001;28;20029;-78
2023/02/22 04:59:09;;;;;;;28.75;15.40;;;-14.20;93.90;;;;;;5047213;28;19932;-78
2023/02/22 05:01:36;;;;;;;26.30;12.40;;;-14.20;93.40;;;;;;5060838;28;20149;-78
2023/02/22 05:04:06;;;;;;;28.10;12.55;;;-14.30;93.40;;;;;;5058270;28;20033;-78
2023/02/22 05:06:32;;;;;;;30.52;15.23;;;-14.30;93.50;;;;;;5045534;28;20410;-78
2023/02/22 05:08:58;;;;;;;25.77;15.37;;;-14.30;93.50;;;;;;5056252;28;20018;-79
2023/02/22 05:11:24;;;;;;;30.47;17.80;;;-14.30;93.50;;;;;;5057366;28;20031;-79
2023/02/22 05:13:50;;;;;;;32.63;16.03;;;-14.30;93.50;;;;;;5060359;28;20041;-78
2023/02/22 05:16:16;;;;;;;35.22;14.10;;;-14.30;93.50;;;;;;5061357;28;20025;-78
2023/02/22 05:18:42;;;;;;;30.67;15.43;;;-14.30;93.60;;;;;;5060580;28;20112;-77
2023/02/22 05:21:08;;;;;;;24.33;13.48;;;-14.20;93.80;;;;;;5038276;28;20313;-77
2023/02/22 05:23:34;;;;;;;31.02;15.82;;;-14.20;93.80;;;;;;5063347;28;20033;-80
2023/02/22 05:26:00;;;;;;;30.58;15.75;;;-14.20;93.80;;;;;;5060547;28;20017;-77
2023/02/22 05:28:26;;;;;;;31.10;11.52;;;-14.10;93.90;;;;;;5040959;28;20464;-79
2023/02/22 05:30:52;;;;;;;21.48;11.73;;;-14.10;94.00;;;;;;5057836;28;20671;-80
2023/02/22 05:33:18;;;;;;;31.38;18.50;;;-14.10;93.80;;;;;;5061275;28;20025;-79
2023/02/22 05:35:45;;;;;;;31.80;15.07;;;-14.00;93.60;;;;;;5059411;28;20373;-79
2023/02/22 05:38:14;;;;;;;29.20;14.23;;;-14.00;93.30;;;;;;5060024;28;20470;-79
2023/02/22 05:40:41;;;;;;;36.45;18.27;;;-14.00;93.20;;;;;;5043975;28;20060;-79
2023/02/22 05:43:07;;;;;;;27.85;17.75;;;-14.10;92.90;;;;;;5058506;28;20466;-77
2023/02/22 05:45:33;;;;;;;36.90;19.10;;;-14.00;92.90;;;;;;5040405;28;20040;-79
2023/02/22 05:47:59;;;;;;;22.60;12.90;;;-14.10;92.80;;;;;;5038497;28;20053;-78
2023/02/22 05:50:25;;;;;;;22.10;11.68;;;-14.10;92.80;;;;;;5059525;28;20087;-80
2023/02/22 05:52:52;;;;;;;33.03;18.60;;;-14.10;92.90;;;;;;5058240;28;20021;-79
2023/02/22 05:55:20;;;;;;;26.33;13.70;;;-14.00;93.10;;;;;;5058790;28;20162;-79
2023/02/22 05:57:46;;;;;;;31.50;16.40;;;-14.00;92.90;;;;;;5057591;28;20474;-79
2023/02/22 06:00:18;;;;;;;27.30;16.60;;;-14.00;92.70;;;;;;5059455;28;20021;-79
2023/02/22 06:02:45;;;;;;;24.20;16.17;;;-14.00;92.80;;;;;;5038549;28;20029;-79
2023/02/22 06:05:11;;;;;;;28.80;14.52;;;-14.00;92.80;;;;;;5058956;28;20021;-80
2023/02/22 06:07:37;;;;;;;32.88;15.30;;;-13.90;93.00;;;;;;5062230;28;20040;-79
2023/02/22 06:10:03;;;;;;;27.25;14.60;;;-13.90;93.10;;;;;;5057798;28;20386;-78
2023/02/22 06:12:29;;;;;;;48.58;17.80;;;-13.80;92.90;;;;;;5059500;28;20387;-79
2023/02/22 06:14:55;;;;;;;28.08;18.95;;;-13.80;92.70;;;;;;5040736;28;20035;-80
2023/02/22 06:17:21;;;;;;;28.23;14.38;;;-13.80;92.20;;;;;;5061144;28;20025;-79
2023/02/22 06:19:47;;;;;;;19.65;11.02;;;-13.80;92.10;;;;;;5059052;28;20032;-79
2023/02/22 06:22:17;;;;;;;28.52;13.45;;;-13.80;92.30;;;;;;5058886;28;20489;-79
2023/02/22 06:24:43;;;;;;;22.88;12.43;;;-13.80;92.50;;;;;;5057452;28;20060;-79
2023/02/22 06:27:09;;;;;;;33.53;19.48;;;-13.70;92.50;;;;;;5058645;28;20044;-79
2023/02/22 06:29:35;;;;;;;20.38;12.00;;;-13.70;92.30;;;;;;5059054;28;20056;-79
2023/02/22 06:32:01;;;;;;;30.67;18.05;;;-13.70;91.80;;;;;;5058458;28;20363;-79
2023/02/22 06:34:27;;;;;;;39.42;19.20;;;-13.70;91.80;;;;;;5027239;28;20153;-80
2023/02/22 06:36:52;;;;;;;31.98;18.08;;;-13.70;92.00;;;;;;5057561;28;20490;-79
2023/02/22 06:39:18;;;;;;;17.77;8.70;;;-13.70;91.70;;;;;;5039268;28;20029;-79
2023/02/22 06:41:45;;;;;;;29.73;15.75;;;-13.70;91.70;;;;;;5056664;28;20017;-79
2023/02/22 06:44:13;;;;;;;20.33;10.25;;;-13.70;92.00;;;;;;5056127;28;20462;-78
2023/02/22 06:46:39;;;;;;;32.95;19.85;;;-13.60;92.30;;;;;;5050421;28;20117;-77
2023/02/22 06:49:05;;;;;;;17.52;13.07;;;-13.60;91.90;;;;;;5045409;28;20438;-79
2023/02/22 06:51:36;;;;;;;33.90;15.63;;;-13.60;91.70;;;;;;5055461;28;20094;-78
2023/02/22 06:54:03;;;;;;;31.02;14.00;;;-13.60;91.50;;;;;;5048987;28;20082;-78
2023/02/22 06:56:29;;;;;;;;;;;-13.60;91.70;;;;;;5060378;28;20087;-79
2023/02/22 06:58:54;;;;;;;23.57;15.30;;;-13.50;91.80;;;;;;5053706;28;20317;-79
2023/02/22 07:01:20;;;;;;;26.50;14.18;;;-13.50;91.20;;;;;;5042158;28;20018;-78
2023/02/22 07:03:49;;;;;;;29.75;16.23;;;-13.50;91.10;;;;;;5053901;28;20530;-80
2023/02/22 07:06:15;;;;;;;30.88;15.75;;;-13.50;91.00;;;;;;5062020;28;20040;-83
2023/02/22 07:08:40;;;;;;;29.83;18.40;;;-13.50;91.10;;;;;;5043315;28;20470;-81
2023/02/22 07:11:06;;;;;;;28.08;18.35;;;-13.40;90.90;;;;;;5054343;28;20037;-81
2023/02/22 07:13:32;;;;;;;34.70;16.35;;;-13.50;90.80;;;;;;5043629;28;20072;-81
2023/02/22 07:15:58;;;;;;;24.35;14.30;;;-13.40;91.00;;;;;;5064786;28;20025;-81
2023/02/22 07:18:24;;;;;;;27.07;16.67;;;-13.40;91.00;;;;;;5042089;28;20017;-79
2023/02/22 07:20:50;;;;;;;26.60;12.33;;;-13.30;90.80;;;;;;5069955;28;20021;-81
2023/02/22 07:23:17;;;;;;;22.40;15.07;;;-13.30;91.00;;;;;;5051250;28;20029;-82
2023/02/22 07:25:43;;;;;;;33.78;16.75;;;-13.20;91.30;;;;;;5056611;28;20052;-82
2023/02/22 07:28:10;;;;;;;23.13;12.88;;;-13.10;90.90;;;;;;5057835;28;20032;-82
2023/02/22 07:30:37;;;;;;;26.60;13.02;;;-13.10;90.70;;;;;;5039333;28;20072;-81
2023/02/22 07:33:12;;;;;;;15.52;9.82;;;-13.10;90.50;;;;;;5049619;28;20053;-82
2023/02/22 07:35:42;;;;;;;31.55;18.17;;;-13.10;90.80;;;;;;5034797;28;20427;-83
2023/02/22 07:38:08;;;;;;;31.27;17.08;;;-13.00;90.60;;;;;;5050603;28;20096;-81
2023/02/22 07:40:36;;;;;;;24.70;16.00;;;-13.00;90.60;;;;;;5037821;28;20494;-81
2023/02/22 07:43:21;;;;;;;24.10;14.07;;;-12.90;90.30;;;;;;5020050;28;20068;-82
2023/02/22 07:45:49;;;;;;;21.05;11.38;;;-12.90;90.20;;;;;;5022850;28;20067;-81
2023/02/22 07:48:17;;;;;;;34.13;14.48;;;-12.90;90.50;;;;;;5061512;28;20025;-81
2023/02/22 07:50:43;;;;;;;20.70;11.82;;;-12.70;90.80;;;;;;5057683;28;20039;-81
2023/02/22 07:53:20;;;;;;;19.55;13.00;;;-12.60;90.10;;;;;;5058104;28;20049;-83
2023/02/22 07:55:49;;;;;;;34.15;14.35;;;-12.50;90.10;;;;;;5039849;28;20102;-82
2023/02/22 07:58:21;;;;;;;21.10;12.10;;;-12.50;90.00;;;;;;5049042;28;20477;-83
2023/02/22 08:00:47;;;;;;;27.55;12.05;;;-12.40;90.20;;;;;;5038819;28;20102;-81
2023/02/22 08:03:15;;;;;;;21.88;12.35;;;-12.30;90.30;;;;;;5034355;28;20025;-82
2023/02/22 08:05:45;;;;;;;24.42;11.35;;;-12.20;89.80;;;;;;5039380;28;20025;-82
2023/02/22 08:08:13;;;;;;;24.55;15.25;;;-12.20;90.10;;;;;;5040403;28;20051;-81
2023/02/22 08:10:39;;;;;;;32.53;17.92;;;-12.20;88.70;;;;;;5054751;28;20119;-81
2023/02/22 08:13:05;;;;;;;32.50;16.88;;;-12.30;87.80;;;;;;5054840;28;20520;-82
2023/02/22 08:15:33;;;;;;;33.67;14.70;;;-12.30;87.70;;;;;;5054981;28;20032;-81
2023/02/22 08:18:03;;;;;;;31.73;13.68;;;-12.30;88.40;;;;;;5035702;28;20108;-82
2023/02/22 08:20:30;;;;;;;29.30;13.05;;;-12.30;89.90;;;;;;5051925;28;20025;-82
2023/02/22 08:22:57;;;;;;;18.65;12.57;;;-12.10;89.60;;;;;;5037329;28;20162;-82
2023/02/22 08:25:24;;;;;;;;;;;-11.90;89.50;;;;;;5052776;28;20037;-83
2023/02/22 08:27:51;;;;;;;22.17;13.35;;;-11.20;91.20;;;;;;5038783;28;19904;-83
2023/02/22 08:30:22;;;;;;;24.83;13.20;;;-10.20;91.30;;;;;;5045933;28;20083;-81
2023/02/22 08:32:49;;;;;;;26.25;15.18;;;-9.10;90.40;;;;;;5043637;28;20270;-82
2023/02/22 08:35:17;;;;;;;20.02;11.90;;;-8.50;84.50;;;;;;5060084;28;20386;-83
2023/02/22 08:37:45;;;;;;;19.50;11.95;;;-8.10;78.70;;;;;;5060250;28;20107;-82
2023/02/22 08:40:13;;;;;;;23.70;17.38;;;-8.00;76.10;;;;;;5067477;28;20021;-82
2023/02/22 08:42:39;;;;;;;23.98;12.88;;;-8.10;74.90;;;;;;5055313;28;20044;-82
2023/02/22 08:45:05;;;;;;;34.45;15.82;;;-8.00;74.90;;;;;;5056351;28;20470;-82
2023/02/22 08:47:31;;;;;;;26.90;14.37;;;-7.90;74.30;;;;;;5058788;28;20095;-82
2023/02/22 08:49:57;;;;;;;30.30;14.38;;;-7.90;72.10;;;;;;5043188;28;20568;-82
2023/02/22 08:52:23;;;;;;;21.55;13.48;;;-8.10;74.60;;;;;;5062361;28;20079;-82
2023/02/22 08:54:49;;;;;;;22.73;14.43;;;-8.00;76.20;;;;;;5054244;28;20033;-82
2023/02/22 08:57:15;;;;;;;20.63;13.00;;;-7.80;73.10;;;;;;5046723;28;20021;-81
2023/02/22 08:59:41;;;;;;;26.52;12.80;;;-7.70;72.60;;;;;;5063803;28;20428;-80
2023/02/22 09:02:19;;;;;;;22.55;12.23;;;-7.70;71.60;;;;;;5047784;28;20040;-82
2023/02/22 09:04:46;;;;;;;26.80;13.45;;;-7.60;72.30;;;;;;5061143;28;20025;-82
2023/02/22 09:07:13;;;;;;;26.77;14.70;;;-7.20;75.40;;;;;;5043639;28;20048;-82
2023/02/22 09:09:42;;;;;;;28.27;16.40;;;-6.60;73.30;;;;;;5061379;28;20110;-81
2023/02/22 09:12:08;;;;;;;24.98;13.85;;;-6.00;71.60;;;;;;5041270;28;20045;-82
2023/02/22 09:14:34;;;;;;;20.55;10.68;;;-5.80;67.50;;;;;;5041288;28;20032;-83
2023/02/22 09:17:00;;;;;;;26.80;14.05;;;-6.00;67.90;;;;;;5039605;28;20416;-82
2023/02/22 09:19:26;;;;;;;23.20;11.70;;;-6.00;65.70;;;;;;5042452;28;20025;-81
2023/02/22 09:21:54;;;;;;;18.48;12.35;;;-6.20;67.20;;;;;;5042153;28;20032;-81
2023/02/22 09:24:20;;;;;;;22.30;12.80;;;-6.10;68.70;;;;;;5059407;28;20017;-82
2023/02/22 09:26:47;;;;;;;25.35;15.27;;;-5.70;70.40;;;;;;5039811;28;20482;-82
2023/02/22 09:29:13;;;;;;;24.67;14.30;;;-4.90;72.30;;;;;;5057811;28;20024;-82
2023/02/22 09:31:40;;;;;;;24.60;15.00;;;-3.90;71.00;;;;;;5058478;28;20056;-81
2023/02/22 09:34:12;;;;;;;22.38;13.45;;;-3.30;64.30;;;;;;5057652;28;20025;-83
2023/02/22 09:36:44;;;;;;;29.40;17.17;;;-3.30;64.00;;;;;;5063262;28;20029;-83
2023/02/22 09:39:11;;;;;;;22.90;16.48;;;-3.70;60.00;;;;;;5059496;28;20020;-82
2023/02/22 09:42:10;;;;;;;26.52;14.77;;;-4.30;59.30;;;;;;5059580;28;20067;-82
2023/02/22 09:45:05;;;;;;;28.13;14.63;;;-4.50;63.00;;;;;;5046408;28;20386;-80
2023/02/22 09:47:55;;;;;;;24.38;13.88;;;-4.40;61.20;;;;;;5058293;28;20032;-83
2023/02/22 09:50:26;;;;;;;25.40;14.10;;;-4.60;61.70;;;;;;5040353;28;20041;-82
2023/02/22 09:52:52;;;;;;;33.03;15.65;;;-4.70;65.10;;;;;;5064291;28;20028;-81
2023/02/22 09:55:27;;;;;;;21.88;14.25;;;-4.70;64.30;;;;;;5052107;28;20029;-82
2023/02/22 09:57:57;;;;;;;20.77;12.18;;;-4.70;60.50;;;;;;5054560;28;20041;-82
2023/02/22 10:00:38;;;;;;;24.35;14.20;;;-4.70;61.20;;;;;;5040886;28;20516;-82
2023/02/22 10:03:19;;;;;;;28.20;15.35;;;-5.00;59.70;;;;;;5057576;28;20035;-81
2023/02/22 10:05:52;;;;;;;23.45;14.18;;;-5.10;62.40;;;;;;5040786;28;20051;-83
2023/02/22 10:08:20;;;;;;;23.65;13.43;;;-5.00;61.30;;;;;;5062871;28;20033;-82
2023/02/22 10:11:07;;;;;;;21.52;13.63;;;-5.10;62.50;;;;;;5047427;28;20037;-82
2023/02/22 10:14:04;;;;;;;20.42;14.60;;;-5.00;61.40;;;;;;5060023;28;20401;-83
2023/02/22 10:17:07;;;;;;;24.77;13.07;;;-4.70;63.00;;;;;;5061912;28;20032;-83
2023/02/22 10:19:58;;;;;;;19.65;13.00;;;-4.40;61.30;;;;;;4994867;28;20431;-82
2023/02/22 10:22:30;;;;;;;19.55;11.82;;;-3.90;60.50;;;;;;5057771;28;20063;-83
2023/02/22 10:25:06;;;;;;;27.00;13.30;;;-3.90;61.10;;;;;;5061299;28;20431;-82
2023/02/22 10:28:14;;;;;;;20.50;12.80;;;-3.80;59.90;;;;;;5043674;28;20032;-81
2023/02/22 10:30:57;;;;;;;22.83;13.32;;;-3.60;61.40;;;;;;5027265;28;20044;-81
2023/02/22 10:33:27;;;;;;;17.98;12.07;;;-4.20;57.90;;;;;;5059647;28;20021;-82
2023/02/22 10:35:54;;;;;;;20.30;12.90;;;-5.50;58.40;;;;;;5054554;28;20035;-82
2023/02/22 10:38:30;;;;;;;20.33;11.45;;;-6.60;61.10;;;;;;5057570;28;20109;-81
2023/02/22 10:41:22;;;;;;;18.90;11.60;;;-7.30;63.80;;;;;;5056053;28;20359;-82
2023/02/22 10:43:48;;;;;;;25.98;14.90;;;-8.00;66.30;;;;;;5053736;28;20174;-84
2023/02/22 10:46:19;;;;;;;21.17;13.82;;;-8.40;67.10;;;;;;5035236;28;20028;-82
2023/02/22 10:48:49;;;;;;;22.17;11.90;;;-8.60;68.20;;;;;;5053829;28;20028;-82
2023/02/22 10:51:15;;;;;;;22.48;11.63;;;-8.90;69.10;;;;;;5053991;28;20116;-83
2023/02/22 10:53:41;;;;;;;18.05;11.80;;;-9.30;69.50;;;;;;5039611;28;20481;-81
2023/02/22 10:56:22;;;;;;;26.15;11.60;;;-9.50;71.10;;;;;;5053567;28;20432;-82
2023/02/22 10:58:56;;;;;;;23.52;13.00;;;-9.70;72.00;;;;;;5027753;28;20025;-82
2023/02/22 11:01:31;;;;;;;18.05;10.07;;;-9.80;72.30;;;;;;5045823;28;20029;-82
2023/02/22 11:04:16;;;;;;;21.73;12.52;;;-9.80;74.20;;;;;;5061641;28;20386;-81
2023/02/22 11:06:48;;;;;;;28.80;12.85;;;-9.90;73.50;;;;;;5058632;28;20028;-81
2023/02/22 11:09:21;;;;;;;19.02;11.55;;;-10.10;74.40;;;;;;5059183;28;20432;-81
2023/02/22 11:11:48;;;;;;;22.33;11.45;;;-10.30;75.00;;;;;;5055865;28;20053;-82
2023/02/22 11:14:29;;;;;;;28.48;14.88;;;-10.30;75.70;;;;;;5054518;28;20417;-81
2023/02/22 11:16:57;;;;;;;24.33;12.88;;;-10.30;75.80;;;;;;5057007;28;20033;-82
2023/02/22 11:19:27;;;;;;;19.55;12.80;;;-10.30;76.80;;;;;;5056637;28;20055;-82
2023/02/22 11:22:09;;;;;;;16.52;10.70;;;-10.30;77.70;;;;;;5056087;28;20394;-81
2023/02/22 11:24:45;;;;;;;21.98;15.27;;;-10.30;77.50;;;;;;5039023;28;20059;-82
2023/02/22 11:27:27;;;;;;;27.70;13.02;;;-10.40;77.80;;;;;;5038824;28;20117;-82
2023/02/22 11:30:15;;;;;;;20.63;10.45;;;-10.40;78.70;;;;;;5037693;28;20430;-81
2023/02/22 11:32:51;;;;;;;15.43;10.82;;;-10.30;79.20;;;;;;5030483;28;20031;-82
2023/02/22 11:35:29;;;;;;;20.38;11.95;;;-10.40;78.40;;;;;;5038649;28;20028;-82
2023/02/22 11:38:20;;;;;;;23.17;13.32;;;-10.40;78.60;;;;;;5037473;28;20335;-81
2023/02/22 11:41:03;;;;;;;17.38;12.00;;;-10.30;78.70;;;;;;5038884;28;20166;-82
2023/02/22 11:43:30;;;;;;;18.30;11.73;;;-10.40;79.50;;;;;;5037264;28;20036;-82
2023/02/22 11:45:59;;;;;;;20.52;9.25;;;-10.40;79.10;;;;;;5055240;28;20019;-82
2023/02/22 11:48:27;;;;;;;21.92;11.18;;;-10.40;80.00;;;;;;5057484;28;20061;-81
2023/02/22 11:51:11;;;;;;;25.30;14.15;;;-10.50;79.70;;;;;;5037369;28;20044;-81
2023/02/22 11:54:24;;;;;;;19.83;11.68;;;-10.50;79.70;;;;;;5056544;28;20021;-82
2023/02/22 11:56:52;;;;;;;14.98;9.90;;;-10.50;80.10;;;;;;5008382;28;20036;-81
2023/02/22 11:59:19;;;;;;;21.17;12.00;;;-10.50;80.70;;;;;;5053042;28;20020;-81
2023/02/22 12:02:03;;;;;;;25.60;14.30;;;-10.40;81.30;;;;;;5054218;28;20331;-80
2023/02/22 12:05:07;;;;;;;15.73;10.52;;;-10.40;81.40;;;;;;5049231;28;20437;-81
2023/02/22 12:07:49;;;;;;;27.85;13.95;;;-10.40;82.40;;;;;;5060071;28;20474;-81
2023/02/22 12:10:40;;;;;;;28.27;13.73;;;-10.40;81.60;;;;;;5060017;28;20033;-82
2023/02/22 12:13:50;;;;;;;21.42;13.23;;;-10.40;81.90;;;;;;5058486;28;20083;-82
2023/02/22 12:16:27;;;;;;;20.02;10.60;;;-10.40;82.00;;;;;;4958760;29;20043;-81
2023/02/22 12:19:05;;;;;;;23.70;14.80;;;-10.40;82.60;;;;;;4959816;28;20027;-81
2023/02/22 12:21:35;;;;;;;18.63;11.80;;;-10.40;82.30;;;;;;4994529;28;20431;-82
2023/02/22 12:24:13;;;;;;;20.80;12.20;;;-10.30;82.40;;;;;;5058449;28;20014;-81
2023/02/22 12:26:55;;;;;;;25.92;14.15;;;-10.40;81.70;;;;;;5043747;28;20078;-81
2023/02/22 12:29:49;;;;;;;24.30;10.63;;;-10.40;81.50;;;;;;5048867;28;20025;-80
2023/02/22 12:32:36;;;;;;;17.98;11.48;;;-10.50;81.90;;;;;;5062838;28;20021;-82
2023/02/22 12:35:35;;;;;;;22.13;11.90;;;-10.40;82.00;;;;;;5040982;28;20028;-81
2023/02/22 12:38:24;;;;;;;20.23;9.70;;;-10.30;82.70;;;;;;5046662;28;20037;-82
2023/02/22 12:41:18;;;;;;;20.60;12.60;;;-10.30;82.90;;;;;;5054345;28;20381;-81
2023/02/22 12:44:00;;;;;;;22.42;12.30;;;-10.30;82.70;;;;;;5037935;28;20397;-80